sensor_id;sensor_type;location;lat;lon;timestamp;temperature;humidity
16907;DHT22;8570;52.380;4.654;2023-02-03T00:03:05;8.30;99.90
16907;DHT22;8570;52.380;4.654;2023-02-03T00:08:08;8.30;99.90
16907;DHT22;8570;52.380;4.654;2023-02-03T00:13:10;8.30;99.90
16907;DHT22;8570;52.380;4.654;2023-02-03T00:18:13;8.30;99.90
16907;DHT22;8570;52.380;4.654;2023-02-03T00:23:15;8.30;99.90
16907;DHT22;8570;52.380;4.654;2023-02-03T00:28:17;8.30;99.90
16907;DHT22;8570;52.380;4.654;2023-02-03T00:33:20;8.30;99.90
16907;DHT22;8570;52.380;4.654;2023-02-03T00:38:26;8.30;99.90
16907;DHT22;8570;52.380;4.654;2023-02-03T00:43:28;8.40;99.90
16907;DHT22;8570;52.380;4.654;2023-02-03T00:48:31;8.40;99.90
16907;DHT22;8570;52.380;4.654;2023-02-03T00:53:33;8.40;99.90
16907;DHT22;8570;52.380;4.654;2023-02-03T00:58:35;8.40;99.90
16907;DHT22;8570;52.380;4.654;2023-02-03T01:03:38;8.50;99.90
16907;DHT22;8570;52.380;4.654;2023-02-03T01:08:40;8.50;99.90
16907;DHT22;8570;52.380;4.654;2023-02-03T01:13:43;8.60;99.90
16907;DHT22;8570;52.380;4.654;2023-02-03T01:18:46;8.60;99.90
16907;DHT22;8570;52.380;4.654;2023-02-03T01:23:49;8.60;99.90
16907;DHT22;8570;52.380;4.654;2023-02-03T01:28:51;8.60;99.90
16907;DHT22;8570;52.380;4.654;2023-02-03T01:33:55;8.70;99.90
16907;DHT22;8570;52.380;4.654;2023-02-03T01:38:57;8.70;99.90
16907;DHT22;8570;52.380;4.654;2023-02-03T01:44:00;8.70;99.90
16907;DHT22;8570;52.380;4.654;2023-02-03T01:49:08;8.70;99.90
16907;DHT22;8570;52.380;4.654;2023-02-03T01:54:13;8.70;99.90
16907;DHT22;8570;52.380;4.654;2023-02-03T01:59:17;8.70;99.90
16907;DHT22;8570;52.380;4.654;2023-02-03T02:04:25;8.80;99.90
16907;DHT22;8570;52.380;4.654;2023-02-03T02:09:29;8.80;99.90
16907;DHT22;8570;52.380;4.654;2023-02-03T02:14:31;8.80;99.90
16907;DHT22;8570;52.380;4.654;2023-02-03T02:20:09;8.80;99.90
16907;DHT22;8570;52.380;4.654;2023-02-03T02:25:35;8.80;99.90
16907;DHT22;8570;52.380;4.654;2023-02-03T02:36:19;8.80;99.90
16907;DHT22;8570;52.380;4.654;2023-02-03T02:41:28;8.70;99.90
16907;DHT22;8570;52.380;4.654;2023-02-03T02:46:37;8.70;99.90
16907;DHT22;8570;52.380;4.654;2023-02-03T02:51:44;8.70;99.90
16907;DHT22;8570;52.380;4.654;2023-02-03T02:56:51;8.70;99.90
16907;DHT22;8570;52.380;4.654;2023-02-03T03:01:54;8.70;99.90
16907;DHT22;8570;52.380;4.654;2023-02-03T03:06:59;8.70;99.90
16907;DHT22;8570;52.380;4.654;2023-02-03T03:12:05;8.70;99.90
16907;DHT22;8570;52.380;4.654;2023-02-03T03:17:11;8.70;99.90
16907;DHT22;8570;52.380;4.654;2023-02-03T03:22:16;8.70;99.90
16907;DHT22;8570;52.380;4.654;2023-02-03T03:27:22;8.60;99.90
16907;DHT22;8570;52.380;4.654;2023-02-03T03:32:25;8.70;99.90
16907;DHT22;8570;52.380;4.654;2023-02-03T03:37:33;8.60;99.90
16907;DHT22;8570;52.380;4.654;2023-02-03T03:42:39;8.70;99.90
16907;DHT22;8570;52.380;4.654;2023-02-03T03:47:48;8.70;99.90
16907;DHT22;8570;52.380;4.654;2023-02-03T03:52:53;8.70;99.90
16907;DHT22;8570;52.380;4.654;2023-02-03T03:58:00;8.70;99.90
16907;DHT22;8570;52.380;4.654;2023-02-03T04:03:06;8.70;99.90
16907;DHT22;8570;52.380;4.654;2023-02-03T04:08:10;8.70;99.90
16907;DHT22;8570;52.380;4.654;2023-02-03T04:13:12;8.70;99.90
16907;DHT22;8570;52.380;4.654;2023-02-03T04:18:15;8.70;99.90
16907;DHT22;8570;52.380;4.654;2023-02-03T04:23:19;8.70;99.90
16907;DHT22;8570;52.380;4.654;2023-02-03T04:28:21;8.70;99.90
16907;DHT22;8570;52.380;4.654;2023-02-03T04:33:22;8.70;99.90
16907;DHT22;8570;52.380;4.654;2023-02-03T04:38:26;8.80;99.90
16907;DHT22;8570;52.380;4.654;2023-02-03T04:43:27;8.80;99.90
16907;DHT22;8570;52.380;4.654;2023-02-03T04:48:29;8.80;99.90
16907;DHT22;8570;52.380;4.654;2023-02-03T04:53:33;8.80;99.90
16907;DHT22;8570;52.380;4.654;2023-02-03T04:58:36;8.70;99.90
16907;DHT22;8570;52.380;4.654;2023-02-03T05:03:38;8.70;99.90
16907;DHT22;8570;52.380;4.654;2023-02-03T05:08:41;8.70;99.90
16907;DHT22;8570;52.380;4.654;2023-02-03T05:13:43;8.70;99.90
16907;DHT22;8570;52.380;4.654;2023-02-03T05:18:45;8.60;99.90
16907;DHT22;8570;52.380;4.654;2023-02-03T05:23:48;8.60;99.90
16907;DHT22;8570;52.380;4.654;2023-02-03T05:28:50;8.60;99.90
16907;DHT22;8570;52.380;4.654;2023-02-03T05:33:52;8.60;99.90
16907;DHT22;8570;52.380;4.654;2023-02-03T05:38:55;8.60;99.90
16907;DHT22;8570;52.380;4.654;2023-02-03T05:43:57;8.60;99.90
16907;DHT22;8570;52.380;4.654;2023-02-03T05:48:59;8.60;99.90
16907;DHT22;8570;52.380;4.654;2023-02-03T05:54:02;8.50;99.90
16907;DHT22;8570;52.380;4.654;2023-02-03T05:59:05;8.50;99.90
16907;DHT22;8570;52.380;4.654;2023-02-03T06:04:06;8.50;99.90
16907;DHT22;8570;52.380;4.654;2023-02-03T06:09:10;8.50;99.90
16907;DHT22;8570;52.380;4.654;2023-02-03T06:14:11;8.50;99.90
16907;DHT22;8570;52.380;4.654;2023-02-03T06:19:14;8.50;99.90
16907;DHT22;8570;52.380;4.654;2023-02-03T06:24:17;8.50;99.90
16907;DHT22;8570;52.380;4.654;2023-02-03T06:29:19;8.40;99.90
16907;DHT22;8570;52.380;4.654;2023-02-03T06:34:21;8.40;99.90
16907;DHT22;8570;52.380;4.654;2023-02-03T06:39:24;8.40;99.90
16907;DHT22;8570;52.380;4.654;2023-02-03T06:44:26;8.40;99.90
16907;DHT22;8570;52.380;4.654;2023-02-03T06:49:28;8.50;99.90
16907;DHT22;8570;52.380;4.654;2023-02-03T06:54:31;8.50;99.90
16907;DHT22;8570;52.380;4.654;2023-02-03T06:59:33;8.50;99.90
16907;DHT22;8570;52.380;4.654;2023-02-03T07:04:35;8.50;99.90
16907;DHT22;8570;52.380;4.654;2023-02-03T07:09:39;8.50;99.90
16907;DHT22;8570;52.380;4.654;2023-02-03T07:14:41;8.50;99.90
16907;DHT22;8570;52.380;4.654;2023-02-03T07:19:43;8.50;99.90
16907;DHT22;8570;52.380;4.654;2023-02-03T07:24:46;8.50;99.90
16907;DHT22;8570;52.380;4.654;2023-02-03T07:29:48;8.50;99.90
16907;DHT22;8570;52.380;4.654;2023-02-03T07:34:50;8.60;99.90
16907;DHT22;8570;52.380;4.654;2023-02-03T07:39:53;8.50;99.90
16907;DHT22;8570;52.380;4.654;2023-02-03T07:44:55;8.60;99.90
16907;DHT22;8570;52.380;4.654;2023-02-03T07:49:57;8.60;99.90
16907;DHT22;8570;52.380;4.654;2023-02-03T07:55:01;8.60;99.90
16907;DHT22;8570;52.380;4.654;2023-02-03T08:00:03;8.60;99.90
16907;DHT22;8570;52.380;4.654;2023-02-03T08:05:06;8.60;99.90
16907;DHT22;8570;52.380;4.654;2023-02-03T08:10:11;8.60;99.90
16907;DHT22;8570;52.380;4.654;2023-02-03T08:15:14;8.60;99.90
16907;DHT22;8570;52.380;4.654;2023-02-03T08:20:17;8.60;99.90
16907;DHT22;8570;52.380;4.654;2023-02-03T08:25:20;8.70;99.90
16907;DHT22;8570;52.380;4.654;2023-02-03T08:30:22;8.70;99.90
16907;DHT22;8570;52.380;4.654;2023-02-03T08:35:24;8.80;99.90
16907;DHT22;8570;52.380;4.654;2023-02-03T08:40:27;8.80;99.90
16907;DHT22;8570;52.380;4.654;2023-02-03T08:45:29;8.80;99.90
16907;DHT22;8570;52.380;4.654;2023-02-03T08:50:31;8.90;99.90
16907;DHT22;8570;52.380;4.654;2023-02-03T08:55:37;8.90;99.90
16907;DHT22;8570;52.380;4.654;2023-02-03T09:00:40;9.00;99.90
16907;DHT22;8570;52.380;4.654;2023-02-03T09:05:42;9.00;99.90
16907;DHT22;8570;52.380;4.654;2023-02-03T09:10:45;9.10;99.90
16907;DHT22;8570;52.380;4.654;2023-02-03T09:15:47;9.20;99.90
16907;DHT22;8570;52.380;4.654;2023-02-03T09:20:49;9.30;99.90
16907;DHT22;8570;52.380;4.654;2023-02-03T09:25:52;9.30;99.90
16907;DHT22;8570;52.380;4.654;2023-02-03T09:30:58;9.30;99.90
16907;DHT22;8570;52.380;4.654;2023-02-03T09:36:01;9.30;99.90
16907;DHT22;8570;52.380;4.654;2023-02-03T09:41:16;9.40;99.90
16907;DHT22;8570;52.380;4.654;2023-02-03T09:46:22;9.40;99.90
16907;DHT22;8570;52.380;4.654;2023-02-03T09:51:28;9.40;99.90
16907;DHT22;8570;52.380;4.654;2023-02-03T09:56:33;9.40;99.90
16907;DHT22;8570;52.380;4.654;2023-02-03T10:01:42;9.40;99.90
16907;DHT22;8570;52.380;4.654;2023-02-03T10:06:46;9.40;99.90
16907;DHT22;8570;52.380;4.654;2023-02-03T10:12:11;9.40;99.90
16907;DHT22;8570;52.380;4.654;2023-02-03T10:17:26;9.40;99.90
16907;DHT22;8570;52.380;4.654;2023-02-03T10:22:33;9.40;99.90
16907;DHT22;8570;52.380;4.654;2023-02-03T10:27:37;9.40;99.90
16907;DHT22;8570;52.380;4.654;2023-02-03T10:32:39;9.40;99.90
16907;DHT22;8570;52.380;4.654;2023-02-03T10:37:45;9.50;99.90
16907;DHT22;8570;52.380;4.654;2023-02-03T10:42:49;9.50;99.90
16907;DHT22;8570;52.380;4.654;2023-02-03T10:48:15;9.60;99.90
16907;DHT22;8570;52.380;4.654;2023-02-03T10:53:21;9.60;99.90
16907;DHT22;8570;52.380;4.654;2023-02-03T10:58:28;9.60;99.90
16907;DHT22;8570;52.380;4.654;2023-02-03T11:03:30;9.60;99.90
16907;DHT22;8570;52.380;4.654;2023-02-03T11:08:33;9.60;99.90
16907;DHT22;8570;52.380;4.654;2023-02-03T11:13:37;9.60;99.90
16907;DHT22;8570;52.380;4.654;2023-02-03T11:18:43;9.70;99.90
16907;DHT22;8570;52.380;4.654;2023-02-03T11:23:53;9.70;99.90
16907;DHT22;8570;52.380;4.654;2023-02-03T11:29:00;9.70;99.90
16907;DHT22;8570;52.380;4.654;2023-02-03T11:34:05;9.70;99.90
16907;DHT22;8570;52.380;4.654;2023-02-03T11:39:20;9.70;99.90
16907;DHT22;8570;52.380;4.654;2023-02-03T11:44:27;9.70;99.90
16907;DHT22;8570;52.380;4.654;2023-02-03T11:49:58;9.70;99.90
16907;DHT22;8570;52.380;4.654;2023-02-03T11:55:09;9.70;99.90
16907;DHT22;8570;52.380;4.654;2023-02-03T12:00:23;9.70;99.90
16907;DHT22;8570;52.380;4.654;2023-02-03T12:05:50;9.70;99.90
16907;DHT22;8570;52.380;4.654;2023-02-03T12:11:02;9.70;99.90
16907;DHT22;8570;52.380;4.654;2023-02-03T12:16:18;9.70;99.90
16907;DHT22;8570;52.380;4.654;2023-02-03T12:21:42;9.70;99.90
16907;DHT22;8570;52.380;4.654;2023-02-03T12:26:49;9.70;99.90
16907;DHT22;8570;52.380;4.654;2023-02-03T12:32:01;9.60;99.90
16907;DHT22;8570;52.380;4.654;2023-02-03T12:37:08;9.60;99.90
16907;DHT22;8570;52.380;4.654;2023-02-03T12:42:16;9.60;99.90
16907;DHT22;8570;52.380;4.654;2023-02-03T12:47:26;9.70;99.90
16907;DHT22;8570;52.380;4.654;2023-02-03T12:52:35;9.70;99.90
16907;DHT22;8570;52.380;4.654;2023-02-03T12:57:42;9.70;99.90
16907;DHT22;8570;52.380;4.654;2023-02-03T13:02:55;9.80;99.90
16907;DHT22;8570;52.380;4.654;2023-02-03T13:08:08;9.80;99.90
16907;DHT22;8570;52.380;4.654;2023-02-03T13:13:16;9.80;99.90
16907;DHT22;8570;52.380;4.654;2023-02-03T13:18:25;9.80;99.90
16907;DHT22;8570;52.380;4.654;2023-02-03T13:23:29;9.80;99.90
16907;DHT22;8570;52.380;4.654;2023-02-03T13:28:42;9.80;99.90
16907;DHT22;8570;52.380;4.654;2023-02-03T13:34:00;9.70;99.90
16907;DHT22;8570;52.380;4.654;2023-02-03T13:39:45;9.70;99.90
16907;DHT22;8570;52.380;4.654;2023-02-03T13:44:55;9.70;99.90
16907;DHT22;8570;52.380;4.654;2023-02-03T13:50:00;9.70;99.90
16907;DHT22;8570;52.380;4.654;2023-02-03T13:55:03;9.70;99.90
16907;DHT22;8570;52.380;4.654;2023-02-03T14:00:56;9.70;99.90
16907;DHT22;8570;52.380;4.654;2023-02-03T14:05:42;9.70;99.90
16907;DHT22;8570;52.380;4.654;2023-02-03T14:10:44;9.70;99.90
16907;DHT22;8570;52.380;4.654;2023-02-03T14:16:12;9.70;99.90
16907;DHT22;8570;52.380;4.654;2023-02-03T14:21:18;9.60;99.90
16907;DHT22;8570;52.380;4.654;2023-02-03T14:26:37;9.60;99.90
16907;DHT22;8570;52.380;4.654;2023-02-03T14:32:01;9.60;99.90
16907;DHT22;8570;52.380;4.654;2023-02-03T14:37:20;9.60;99.90
16907;DHT22;8570;52.380;4.654;2023-02-03T14:43:02;9.60;99.90
16907;DHT22;8570;52.380;4.654;2023-02-03T14:48:19;9.60;99.90
16907;DHT22;8570;52.380;4.654;2023-02-03T14:53:52;9.60;99.90
16907;DHT22;8570;52.380;4.654;2023-02-03T14:59:01;9.60;99.90
16907;DHT22;8570;52.380;4.654;2023-02-03T15:04:22;9.60;99.90
16907;DHT22;8570;52.380;4.654;2023-02-03T15:09:30;9.50;99.90
16907;DHT22;8570;52.380;4.654;2023-02-03T15:14:33;9.50;99.90
16907;DHT22;8570;52.380;4.654;2023-02-03T15:19:39;9.50;99.90
16907;DHT22;8570;52.380;4.654;2023-02-03T15:24:42;9.50;99.90
16907;DHT22;8570;52.380;4.654;2023-02-03T15:29:44;9.50;99.90
16907;DHT22;8570;52.380;4.654;2023-02-03T15:34:47;9.40;99.90
16907;DHT22;8570;52.380;4.654;2023-02-03T15:40:06;9.50;99.90
16907;DHT22;8570;52.380;4.654;2023-02-03T15:45:19;9.40;99.90
16907;DHT22;8570;52.380;4.654;2023-02-03T15:50:28;9.40;99.90
16907;DHT22;8570;52.380;4.654;2023-02-03T15:55:36;9.40;99.90
16907;DHT22;8570;52.380;4.654;2023-02-03T16:00:40;9.40;99.90
16907;DHT22;8570;52.380;4.654;2023-02-03T16:05:42;9.30;99.90
16907;DHT22;8570;52.380;4.654;2023-02-03T16:10:49;9.50;99.90
16907;DHT22;8570;52.380;4.654;2023-02-03T16:16:00;9.60;99.90
16907;DHT22;8570;52.380;4.654;2023-02-03T16:21:05;9.50;99.90
16907;DHT22;8570;52.380;4.654;2023-02-03T16:26:19;9.40;99.90
16907;DHT22;8570;52.380;4.654;2023-02-03T16:31:23;9.20;99.90
16907;DHT22;8570;52.380;4.654;2023-02-03T16:36:43;9.20;99.90
16907;DHT22;8570;52.380;4.654;2023-02-03T16:42:11;9.10;99.90
16907;DHT22;8570;52.380;4.654;2023-02-03T16:47:31;9.00;99.90
16907;DHT22;8570;52.380;4.654;2023-02-03T16:52:51;8.90;99.90
16907;DHT22;8570;52.380;4.654;2023-02-03T16:57:54;8.90;99.90
16907;DHT22;8570;52.380;4.654;2023-02-03T17:02:56;8.90;99.90
16907;DHT22;8570;52.380;4.654;2023-02-03T17:07:58;8.80;99.90
16907;DHT22;8570;52.380;4.654;2023-02-03T17:13:01;8.80;99.90
16907;DHT22;8570;52.380;4.654;2023-02-03T17:18:03;8.80;99.90
16907;DHT22;8570;52.380;4.654;2023-02-03T17:23:05;8.80;99.90
16907;DHT22;8570;52.380;4.654;2023-02-03T17:28:10;8.90;99.90
16907;DHT22;8570;52.380;4.654;2023-02-03T17:33:12;8.90;99.90
16907;DHT22;8570;52.380;4.654;2023-02-03T17:38:14;8.90;99.90
16907;DHT22;8570;52.380;4.654;2023-02-03T17:43:17;8.90;99.90
16907;DHT22;8570;52.380;4.654;2023-02-03T17:48:19;8.90;99.90
16907;DHT22;8570;52.380;4.654;2023-02-03T17:53:21;8.80;99.90
16907;DHT22;8570;52.380;4.654;2023-02-03T17:58:24;8.80;99.90
16907;DHT22;8570;52.380;4.654;2023-02-03T18:03:26;8.80;99.90
16907;DHT22;8570;52.380;4.654;2023-02-03T18:08:28;8.80;99.90
16907;DHT22;8570;52.380;4.654;2023-02-03T18:13:34;8.80;99.90
16907;DHT22;8570;52.380;4.654;2023-02-03T18:18:36;8.80;99.90
16907;DHT22;8570;52.380;4.654;2023-02-03T18:23:39;8.80;99.90
16907;DHT22;8570;52.380;4.654;2023-02-03T18:28:42;8.80;99.90
16907;DHT22;8570;52.380;4.654;2023-02-03T18:33:48;8.80;99.90
16907;DHT22;8570;52.380;4.654;2023-02-03T18:38:50;8.80;99.90
16907;DHT22;8570;52.380;4.654;2023-02-03T18:43:53;8.80;99.90
16907;DHT22;8570;52.380;4.654;2023-02-03T18:48:55;8.80;99.90
16907;DHT22;8570;52.380;4.654;2023-02-03T18:53:58;8.80;99.90
16907;DHT22;8570;52.380;4.654;2023-02-03T18:59:03;8.80;99.90
16907;DHT22;8570;52.380;4.654;2023-02-03T19:04:05;8.80;99.90
16907;DHT22;8570;52.380;4.654;2023-02-03T19:09:07;8.80;99.90
16907;DHT22;8570;52.380;4.654;2023-02-03T19:14:12;8.80;99.90
16907;DHT22;8570;52.380;4.654;2023-02-03T19:19:15;8.70;99.90
16907;DHT22;8570;52.380;4.654;2023-02-03T19:24:17;8.70;99.90
16907;DHT22;8570;52.380;4.654;2023-02-03T19:29:21;8.70;99.90
16907;DHT22;8570;52.380;4.654;2023-02-03T19:34:23;8.70;99.90
16907;DHT22;8570;52.380;4.654;2023-02-03T19:39:25;8.70;99.90
16907;DHT22;8570;52.380;4.654;2023-02-03T19:44:29;8.70;99.90
16907;DHT22;8570;52.380;4.654;2023-02-03T19:49:31;8.70;99.90
16907;DHT22;8570;52.380;4.654;2023-02-03T19:54:33;8.60;99.90
16907;DHT22;8570;52.380;4.654;2023-02-03T19:59:37;8.70;99.90
16907;DHT22;8570;52.380;4.654;2023-02-03T20:04:39;8.70;99.90
16907;DHT22;8570;52.380;4.654;2023-02-03T20:09:40;8.70;99.90
16907;DHT22;8570;52.380;4.654;2023-02-03T20:14:44;8.70;99.90
16907;DHT22;8570;52.380;4.654;2023-02-03T20:19:46;8.70;99.90
16907;DHT22;8570;52.380;4.654;2023-02-03T20:24:48;8.70;99.90
16907;DHT22;8570;52.380;4.654;2023-02-03T20:29:51;8.70;99.90
16907;DHT22;8570;52.380;4.654;2023-02-03T20:34:53;8.60;99.90
16907;DHT22;8570;52.380;4.654;2023-02-03T20:39:55;8.60;99.90
16907;DHT22;8570;52.380;4.654;2023-02-03T20:44:58;8.60;99.90
16907;DHT22;8570;52.380;4.654;2023-02-03T20:50:00;8.60;99.90
16907;DHT22;8570;52.380;4.654;2023-02-03T20:55:10;8.60;99.90
16907;DHT22;8570;52.380;4.654;2023-02-03T21:00:15;8.60;99.90
16907;DHT22;8570;52.380;4.654;2023-02-03T21:05:23;8.60;99.90
16907;DHT22;8570;52.380;4.654;2023-02-03T21:10:25;8.50;99.90
16907;DHT22;8570;52.380;4.654;2023-02-03T21:15:30;8.60;99.90
16907;DHT22;8570;52.380;4.654;2023-02-03T21:20:33;8.60;99.90
16907;DHT22;8570;52.380;4.654;2023-02-03T21:25:35;8.50;99.90
16907;DHT22;8570;52.380;4.654;2023-02-03T21:30:38;8.60;99.90
16907;DHT22;8570;52.380;4.654;2023-02-03T21:35:40;8.60;99.90
16907;DHT22;8570;52.380;4.654;2023-02-03T21:40:42;8.60;99.90
16907;DHT22;8570;52.380;4.654;2023-02-03T21:45:46;8.60;99.90
16907;DHT22;8570;52.380;4.654;2023-02-03T21:50:49;8.50;99.90
16907;DHT22;8570;52.380;4.654;2023-02-03T21:55:51;8.50;99.90
16907;DHT22;8570;52.380;4.654;2023-02-03T22:00:56;8.50;99.90
16907;DHT22;8570;52.380;4.654;2023-02-03T22:06:12;8.50;99.90
16907;DHT22;8570;52.380;4.654;2023-02-03T22:11:18;8.50;99.90
16907;DHT22;8570;52.380;4.654;2023-02-03T22:16:21;8.50;99.90
16907;DHT22;8570;52.380;4.654;2023-02-03T22:21:25;8.40;99.90
16907;DHT22;8570;52.380;4.654;2023-02-03T22:26:29;8.40;99.90
16907;DHT22;8570;52.380;4.654;2023-02-03T22:31:32;8.40;99.90
16907;DHT22;8570;52.380;4.654;2023-02-03T22:36:34;8.40;99.90
16907;DHT22;8570;52.380;4.654;2023-02-03T22:41:36;8.40;99.90
16907;DHT22;8570;52.380;4.654;2023-02-03T22:46:39;8.40;99.90
16907;DHT22;8570;52.380;4.654;2023-02-03T22:51:41;8.30;99.90
16907;DHT22;8570;52.380;4.654;2023-02-03T22:56:43;8.30;99.90
16907;DHT22;8570;52.380;4.654;2023-02-03T23:01:46;8.30;99.90
16907;DHT22;8570;52.380;4.654;2023-02-03T23:06:48;8.30;99.90
16907;DHT22;8570;52.380;4.654;2023-02-03T23:11:50;8.30;99.90
16907;DHT22;8570;52.380;4.654;2023-02-03T23:16:53;8.20;99.90
16907;DHT22;8570;52.380;4.654;2023-02-03T23:21:55;8.20;99.90
16907;DHT22;8570;52.380;4.654;2023-02-03T23:26:58;8.20;99.90
16907;DHT22;8570;52.380;4.654;2023-02-03T23:32:02;8.20;99.90
16907;DHT22;8570;52.380;4.654;2023-02-03T23:37:03;8.20;99.90
16907;DHT22;8570;52.380;4.654;2023-02-03T23:42:05;8.20;99.90
16907;DHT22;8570;52.380;4.654;2023-02-03T23:47:09;8.10;99.90
16907;DHT22;8570;52.380;4.654;2023-02-03T23:52:11;8.10;99.90
16907;DHT22;8570;52.380;4.654;2023-02-03T23:57:13;8.10;99.90
